createdAt,value
2023-04-01T00:01:51.235Z,9.72
2023-04-01T00:04:22.087Z,9.62
2023-04-01T00:06:52.678Z,9.80
2023-04-01T00:09:24.753Z,9.86
2023-04-01T00:11:57.874Z,9.80
2023-04-01T00:14:30.237Z,9.72
2023-04-01T00:17:01.811Z,9.71
2023-04-01T00:19:33.947Z,9.79
2023-04-01T00:22:04.825Z,9.95
2023-04-01T00:24:36.793Z,9.85
2023-04-01T00:27:08.786Z,9.78
2023-04-01T00:29:39.564Z,9.83
2023-04-01T00:32:10.312Z,9.74
2023-04-01T00:34:41.025Z,9.78
2023-04-01T00:37:12.635Z,9.78
2023-04-01T00:39:46.249Z,9.80
2023-04-01T00:42:16.986Z,9.96
2023-04-01T00:44:55.528Z,9.85
2023-04-01T00:47:28.515Z,9.80
2023-04-01T00:49:59.373Z,9.71
2023-04-01T00:52:30.062Z,9.80
2023-04-01T00:55:03.321Z,9.73
2023-04-01T00:57:37.571Z,9.93
2023-04-01T01:00:14.502Z,10.00
2023-04-01T01:02:46.699Z,9.88
2023-04-01T01:05:22.696Z,10.05
2023-04-01T01:07:58.642Z,9.98
2023-04-01T01:10:35.374Z,9.82
2023-04-01T01:13:24.286Z,9.78
2023-04-01T01:15:58.615Z,9.82
2023-04-01T01:18:47.742Z,9.78
2023-04-01T01:21:42.143Z,9.80
2023-04-01T01:24:30.856Z,9.93
2023-04-01T01:27:17.016Z,9.98
2023-04-01T01:30:08.874Z,10.02
2023-04-01T01:33:02.420Z,10.09
2023-04-01T01:35:41.918Z,9.76
2023-04-01T01:38:20.446Z,9.88
2023-04-01T01:40:54.802Z,9.96
2023-04-01T01:43:28.347Z,9.73
2023-04-01T01:46:01.963Z,9.65
2023-04-01T01:48:34.970Z,9.65
2023-04-01T01:51:07.834Z,9.76
2023-04-01T01:53:38.545Z,9.70
2023-04-01T01:56:09.461Z,9.92
2023-04-01T01:58:43.336Z,9.78
2023-04-01T02:01:17.002Z,9.68
2023-04-01T02:03:50.086Z,9.65
2023-04-01T02:06:23.836Z,9.80
2023-04-01T02:09:07.677Z,9.58
2023-04-01T02:11:54.017Z,9.70
2023-04-01T02:14:30.502Z,9.65
2023-04-01T02:17:03.997Z,9.61
2023-04-01T02:19:43.181Z,9.60
2023-04-01T02:22:18.399Z,9.71
2023-04-01T02:24:52.042Z,9.81
2023-04-01T02:27:22.870Z,9.76
2023-04-01T02:29:56.027Z,9.79
2023-04-01T02:32:28.816Z,9.71
2023-04-01T02:35:01.003Z,9.74
2023-04-01T02:37:34.367Z,9.69
2023-04-01T02:40:08.791Z,9.68
2023-04-01T02:42:39.601Z,9.61
2023-04-01T02:45:11.235Z,9.66
2023-04-01T02:47:41.833Z,9.56
2023-04-01T02:50:12.529Z,9.77
2023-04-01T02:52:42.989Z,9.62
2023-04-01T02:55:13.611Z,9.75
2023-04-01T02:57:45.787Z,9.56
2023-04-01T03:00:17.980Z,9.61
2023-04-01T03:02:48.710Z,9.70
2023-04-01T03:05:21.024Z,9.63
2023-04-01T03:07:51.816Z,9.63
2023-04-01T03:10:22.610Z,9.62
2023-04-01T03:12:54.350Z,9.69
2023-04-01T03:15:26.545Z,9.71
2023-04-01T03:17:59.079Z,9.67
2023-04-01T03:20:31.128Z,9.77
2023-04-01T03:23:01.926Z,9.90
2023-04-01T03:25:35.546Z,9.86
2023-04-01T03:28:06.678Z,9.86
2023-04-01T03:30:38.686Z,9.92
2023-04-01T03:33:09.616Z,9.84
2023-04-01T03:35:40.348Z,9.76
2023-04-01T03:38:11.598Z,9.88
2023-04-01T03:40:46.648Z,9.88
2023-04-01T03:43:17.758Z,9.85
2023-04-01T03:45:50.789Z,9.90
2023-04-01T03:48:23.123Z,9.79
2023-04-01T03:50:53.505Z,9.83
2023-04-01T03:53:25.650Z,9.87
2023-04-01T03:55:56.542Z,9.79
2023-04-01T03:58:27.708Z,9.83
2023-04-01T04:00:58.291Z,9.86
2023-04-01T04:03:29.473Z,9.86
2023-04-01T04:06:00.927Z,10.04
2023-04-01T04:08:31.711Z,9.94
2023-04-01T04:11:02.990Z,9.90
2023-04-01T04:13:33.525Z,9.87
2023-04-01T04:16:05.422Z,10.00
2023-04-01T04:18:35.908Z,10.03
2023-04-01T04:21:06.503Z,10.07
2023-04-01T04:23:38.203Z,9.92
2023-04-01T04:26:11.755Z,9.99
2023-04-01T04:28:44.233Z,10.02
2023-04-01T04:31:26.161Z,9.96
2023-04-01T04:33:57.252Z,9.90
2023-04-01T04:36:28.149Z,9.95
2023-04-01T04:39:01.316Z,10.00
2023-04-01T04:41:37.595Z,9.90
2023-04-01T04:44:08.264Z,10.00
2023-04-01T04:46:40.305Z,9.94
2023-04-01T04:49:11.051Z,9.91
2023-04-01T04:51:43.062Z,9.90
2023-04-01T04:54:13.699Z,9.98
2023-04-01T04:56:46.524Z,10.00
2023-04-01T04:59:17.008Z,9.84
2023-04-01T05:01:48.641Z,10.04
2023-04-01T05:04:19.979Z,9.97
2023-04-01T05:06:52.673Z,9.87
2023-04-01T05:09:24.330Z,9.98
2023-04-01T05:11:55.227Z,10.06
2023-04-01T05:14:25.691Z,9.84
2023-04-01T05:16:56.160Z,10.00
2023-04-01T05:19:26.740Z,10.06
2023-04-01T05:21:57.349Z,9.99
2023-04-01T05:24:27.973Z,10.06
2023-04-01T05:26:58.441Z,10.16
2023-04-01T05:29:29.562Z,10.01
2023-04-01T05:32:00.164Z,9.98
2023-04-01T05:34:30.686Z,10.01
2023-04-01T05:37:01.406Z,10.00
2023-04-01T05:39:32.307Z,10.02
2023-04-01T05:42:03.058Z,9.84
2023-04-01T05:44:33.864Z,10.06
2023-04-01T05:47:05.821Z,10.03
2023-04-01T05:49:36.325Z,10.08
2023-04-01T05:52:06.916Z,10.12
2023-04-01T05:54:37.571Z,10.22
2023-04-01T05:57:08.254Z,10.11
2023-04-01T05:59:39.083Z,10.26
2023-04-01T06:02:11.794Z,10.40
2023-04-01T06:04:42.894Z,10.23
2023-04-01T06:07:18.660Z,10.26
2023-04-01T06:09:49.541Z,10.19
2023-04-01T06:12:41.351Z,10.18
2023-04-01T06:15:25.546Z,10.17
2023-04-01T06:18:18.167Z,10.07
2023-04-01T06:20:54.632Z,10.22
2023-04-01T06:23:43.038Z,10.12
2023-04-01T06:26:25.394Z,10.14
2023-04-01T06:28:58.991Z,10.17
2023-04-01T06:31:41.547Z,10.18
2023-04-01T06:34:15.375Z,10.30
2023-04-01T06:37:03.446Z,10.34
2023-04-01T06:39:50.035Z,10.40
2023-04-01T06:42:47.454Z,10.22
2023-04-01T06:45:37.730Z,10.21
2023-04-01T06:48:14.144Z,10.29
2023-04-01T06:51:07.072Z,10.41
2023-04-01T06:53:55.784Z,10.36
2023-04-01T06:56:30.308Z,10.44
2023-04-01T06:59:16.490Z,10.28
2023-04-01T07:01:52.923Z,10.55
2023-04-01T07:04:26.896Z,10.41
2023-04-01T07:07:23.341Z,10.52
2023-04-01T07:09:58.710Z,10.50
2023-04-01T07:12:35.386Z,10.52
2023-04-01T07:15:17.864Z,10.38
2023-04-01T07:17:51.294Z,10.46
2023-04-01T07:20:38.859Z,10.48
2023-04-01T07:23:21.138Z,10.60
2023-04-01T07:25:54.682Z,10.82
2023-04-01T07:28:25.453Z,10.97
2023-04-01T07:31:07.820Z,10.96
2023-04-01T07:33:51.171Z,10.95
2023-04-01T07:36:42.986Z,11.09
2023-04-01T07:39:41.297Z,11.23
2023-04-01T07:42:14.719Z,11.34
2023-04-01T07:45:07.622Z,11.11
2023-04-01T07:48:03.576Z,11.10
2023-04-01T07:50:36.751Z,11.32
2023-04-01T07:53:23.909Z,11.22
2023-04-01T07:56:12.798Z,11.29
2023-04-01T07:59:07.436Z,11.08
2023-04-01T08:01:56.986Z,11.45
2023-04-01T08:04:36.219Z,11.72
2023-04-01T08:07:21.942Z,11.22
2023-04-01T08:10:04.403Z,11.10
2023-04-01T08:12:52.738Z,11.16
2023-04-01T08:15:32.338Z,11.24
2023-04-01T08:18:18.066Z,10.92
2023-04-01T08:21:06.415Z,10.87
2023-04-01T08:23:44.204Z,10.73
2023-04-01T08:26:40.010Z,10.72
2023-04-01T08:29:16.227Z,10.66
2023-04-01T08:32:00.487Z,10.52
2023-04-01T08:34:37.871Z,10.18
2023-04-01T08:37:14.145Z,9.82
2023-04-01T08:39:47.836Z,9.73
2023-04-01T08:42:42.402Z,9.65
2023-04-01T08:45:50.006Z,9.76
2023-04-01T08:48:42.859Z,9.61
2023-04-01T08:51:40.476Z,9.72
2023-04-01T08:54:16.771Z,9.66
2023-04-01T08:56:59.342Z,9.64
2023-04-01T08:59:35.999Z,9.54
2023-04-01T09:02:18.584Z,9.55
2023-04-01T09:05:07.064Z,9.51
2023-04-01T09:07:55.521Z,9.50
2023-04-01T09:10:29.311Z,9.69
2023-04-01T09:13:08.443Z,9.58
2023-04-01T09:15:47.801Z,9.67
2023-04-01T09:18:36.171Z,9.74
2023-04-01T09:21:26.249Z,9.74
2023-04-01T09:24:15.921Z,9.61
2023-04-01T09:26:59.684Z,9.53
2023-04-01T09:29:36.225Z,9.58
2023-04-01T09:32:15.519Z,9.46
2023-04-01T09:34:52.061Z,9.64
2023-04-01T09:37:50.812Z,9.70
2023-04-01T09:40:30.013Z,9.66
2023-04-01T09:43:15.515Z,9.61
2023-04-01T09:46:04.061Z,9.73
2023-04-01T09:48:49.218Z,9.79
2023-04-01T09:51:38.413Z,9.78
2023-04-01T09:54:36.464Z,9.55
2023-04-01T09:57:10.369Z,9.24
2023-04-01T09:59:46.644Z,9.38
2023-04-01T10:02:36.854Z,9.24
2023-04-01T10:05:31.039Z,9.15
2023-04-01T10:08:13.469Z,9.02
2023-04-01T10:11:13.079Z,9.18
2023-04-01T10:13:49.192Z,9.03
2023-04-01T10:16:37.681Z,9.17
2023-04-01T10:19:43.464Z,9.20
2023-04-01T10:22:22.674Z,9.20
2023-04-01T10:25:06.460Z,9.34
2023-04-01T10:27:42.578Z,9.52
2023-04-01T10:30:28.609Z,9.24
2023-04-01T10:33:34.565Z,9.54
2023-04-01T10:36:10.990Z,9.38
2023-04-01T10:39:02.772Z,9.38
2023-04-01T10:41:47.648Z,9.27
2023-04-01T10:44:37.270Z,9.14
2023-04-01T10:47:45.449Z,9.30
2023-04-01T10:50:43.004Z,9.08
2023-04-01T10:53:22.324Z,9.16
2023-04-01T10:56:28.132Z,8.85
2023-04-01T10:59:16.626Z,8.90
2023-04-01T11:02:11.573Z,8.64
2023-04-01T11:05:08.230Z,8.55
2023-04-01T11:08:05.850Z,8.70
2023-04-01T11:10:44.449Z,8.70
2023-04-01T11:13:58.350Z,8.72
2023-04-01T11:16:40.954Z,8.88
2023-04-01T11:19:32.389Z,8.78
2023-04-01T11:22:35.754Z,8.71
2023-04-01T11:25:17.868Z,8.80
2023-04-01T11:28:03.397Z,8.53
2023-04-01T11:31:03.774Z,8.70
2023-04-01T11:33:39.925Z,8.66
2023-04-01T11:36:19.392Z,8.56
2023-04-01T11:38:55.714Z,8.64
2023-04-01T11:41:45.502Z,8.47
2023-04-01T11:44:22.432Z,8.42
2023-04-01T11:47:10.815Z,8.44
2023-04-01T11:49:53.397Z,8.69
2023-04-01T11:52:29.656Z,8.62
2023-04-01T11:55:03.199Z,8.68
2023-04-01T11:57:54.377Z,8.48
2023-04-01T12:00:54.388Z,8.40
2023-04-01T12:03:50.498Z,8.33
2023-04-01T12:06:38.074Z,8.46
2023-04-01T12:09:43.097Z,8.30
2023-04-01T12:12:16.702Z,8.30
2023-04-01T12:15:07.638Z,8.24
2023-04-01T12:17:51.289Z,8.16
2023-04-01T12:20:25.041Z,8.30
2023-04-01T12:23:21.546Z,8.33
2023-04-01T12:26:10.166Z,8.26
2023-04-01T12:28:58.195Z,8.12
2023-04-01T12:31:37.831Z,8.04
2023-04-01T12:34:14.343Z,8.15
2023-04-01T12:36:51.581Z,8.14
2023-04-01T12:39:36.252Z,8.08
2023-04-01T12:42:42.868Z,8.08
2023-04-01T12:45:32.681Z,8.03
2023-04-01T12:48:24.828Z,7.80
2023-04-01T12:51:01.124Z,7.85
2023-04-01T12:54:00.072Z,8.02
2023-04-01T12:56:37.402Z,8.00
2023-04-01T12:59:44.829Z,7.91
2023-04-01T13:02:33.847Z,7.92
2023-04-01T13:05:26.951Z,7.74
2023-04-01T13:08:21.218Z,7.72
2023-04-01T13:11:12.645Z,7.72
2023-04-01T13:14:00.037Z,7.61
2023-04-01T13:16:38.224Z,7.58
2023-04-01T13:19:17.408Z,7.68
2023-04-01T13:21:59.753Z,7.72
2023-04-01T13:24:47.921Z,7.66
2023-04-01T13:27:33.130Z,7.87
2023-04-01T13:30:23.721Z,7.81
2023-04-01T13:33:09.776Z,7.78
2023-04-01T13:35:58.761Z,7.60
2023-04-01T13:38:48.550Z,7.58
2023-04-01T13:41:37.476Z,7.82
2023-04-01T13:44:11.219Z,7.74
2023-04-01T13:46:52.025Z,7.56
2023-04-01T13:49:34.190Z,7.52
2023-04-01T13:52:11.609Z,7.51
2023-04-01T13:54:47.826Z,7.50
2023-04-01T13:57:27.221Z,7.50
2023-04-01T14:00:24.932Z,7.57
2023-04-01T14:03:02.340Z,7.61
2023-04-01T14:05:50.835Z,7.60
2023-04-01T14:08:30.591Z,7.60
2023-04-01T14:11:20.971Z,7.54
2023-04-01T14:14:20.519Z,7.52
2023-04-01T14:17:04.587Z,7.57
2023-04-01T14:20:06.525Z,7.71
2023-04-01T14:22:57.987Z,7.86
2023-04-01T14:25:41.053Z,7.59
2023-04-01T14:28:35.274Z,7.68
2023-04-01T14:31:26.870Z,7.65
2023-04-01T14:34:08.885Z,7.46
2023-04-01T14:37:06.796Z,7.34
2023-04-01T14:40:11.481Z,7.43
2023-04-01T14:43:02.915Z,7.32
2023-04-01T14:45:49.096Z,7.37
2023-04-01T14:48:54.645Z,7.31
2023-04-01T14:51:39.920Z,7.36
2023-04-01T14:54:26.027Z,7.40
2023-04-01T14:57:09.662Z,7.36
2023-04-01T14:59:52.117Z,7.36
2023-04-01T15:02:28.593Z,7.46
2023-04-01T15:05:02.131Z,7.34
2023-04-01T15:08:08.466Z,7.44
2023-04-01T15:10:57.051Z,7.28
2023-04-01T15:13:33.314Z,7.24
2023-04-01T15:16:28.092Z,7.13
2023-04-01T15:19:20.938Z,7.14
2023-04-01T15:22:06.271Z,7.17
2023-04-01T15:25:07.842Z,7.04
2023-04-01T15:27:57.824Z,6.96
2023-04-01T15:30:37.428Z,6.91
2023-04-01T15:33:15.068Z,6.99
2023-04-01T15:36:06.315Z,7.00
2023-04-01T15:38:52.358Z,6.95
2023-04-01T15:41:43.973Z,6.89
2023-04-01T15:44:33.967Z,6.84
2023-04-01T15:47:07.539Z,6.88
2023-04-01T15:49:46.674Z,6.85
2023-04-01T15:52:22.911Z,6.95
2023-04-01T15:55:18.949Z,7.04
2023-04-01T15:58:00.216Z,6.97
2023-04-01T16:00:34.621Z,6.80
2023-04-01T16:03:26.606Z,6.80
2023-04-01T16:06:18.617Z,6.79
2023-04-01T16:09:08.484Z,6.77
2023-04-01T16:11:50.811Z,6.73
2023-04-01T16:14:25.307Z,6.77
2023-04-01T16:17:06.319Z,6.75
2023-04-01T16:19:54.875Z,6.87
2023-04-01T16:22:43.310Z,6.86
2023-04-01T16:25:44.262Z,6.76
2023-04-01T16:28:33.867Z,6.73
2023-04-01T16:31:19.176Z,6.69
2023-04-01T16:33:54.208Z,6.65
2023-04-01T16:36:45.711Z,6.63
2023-04-01T16:39:47.108Z,6.58
2023-04-01T16:42:38.262Z,6.46
2023-04-01T16:45:11.948Z,6.45
2023-04-01T16:47:51.584Z,6.35
2023-04-01T16:50:26.042Z,6.31
2023-04-01T16:53:17.388Z,6.29
2023-04-01T16:55:54.013Z,6.16
2023-04-01T16:58:31.941Z,6.10
2023-04-01T17:01:11.489Z,6.02
2023-04-01T17:03:51.940Z,5.92
2023-04-01T17:06:48.507Z,5.90
2023-04-01T17:09:33.687Z,5.91
2023-04-01T17:12:07.205Z,5.87
2023-04-01T17:15:13.323Z,5.78
2023-04-01T17:17:56.594Z,5.75
2023-04-01T17:21:03.152Z,5.71
2023-04-01T17:23:39.560Z,5.67
2023-04-01T17:26:36.287Z,5.63
2023-04-01T17:29:18.859Z,5.60
2023-04-01T17:32:12.196Z,5.51
2023-04-01T17:35:02.809Z,5.42
2023-04-01T17:37:42.535Z,5.43
2023-04-01T17:40:33.513Z,5.39
2023-04-01T17:43:12.900Z,5.28
2023-04-01T17:45:52.416Z,5.33
2023-04-01T17:48:35.587Z,5.36
2023-04-01T17:51:22.792Z,5.32
2023-04-01T17:54:13.980Z,5.36
2023-04-01T17:57:09.926Z,5.24
2023-04-01T17:59:44.126Z,5.24
2023-04-01T18:02:43.290Z,5.22
2023-04-01T18:05:39.251Z,5.10
2023-04-01T18:08:18.855Z,5.02
2023-04-01T18:11:28.246Z,4.94
2023-04-01T18:14:27.252Z,4.95
2023-04-01T18:17:16.656Z,4.94
2023-04-01T18:20:02.417Z,4.88
2023-04-01T18:22:50.704Z,4.80
2023-04-01T18:25:46.677Z,4.78
2023-04-01T18:28:30.408Z,4.74
2023-04-01T18:31:10.852Z,4.71
2023-04-01T18:33:56.414Z,4.80
2023-04-01T18:36:46.475Z,4.70
2023-04-01T18:39:24.966Z,4.82
2023-04-01T18:42:04.439Z,4.74
2023-04-01T18:44:53.214Z,4.69
2023-04-01T18:47:48.550Z,4.80
2023-04-01T18:50:31.139Z,4.67
2023-04-01T18:53:13.529Z,4.66
2023-04-01T18:56:02.393Z,4.62
2023-04-01T18:59:06.280Z,4.64
2023-04-01T19:01:39.907Z,4.62
2023-04-01T19:04:30.305Z,4.75
2023-04-01T19:07:03.726Z,4.72
2023-04-01T19:09:47.986Z,4.78
2023-04-01T19:12:27.322Z,4.66
2023-04-01T19:15:07.733Z,4.59
2023-04-01T19:18:01.886Z,4.58
2023-04-01T19:21:03.685Z,4.48
2023-04-01T19:23:49.220Z,4.47
2023-04-01T19:26:58.427Z,4.37
2023-04-01T19:29:34.795Z,4.36
2023-04-01T19:32:11.350Z,4.40
2023-04-01T19:34:59.850Z,4.32
2023-04-01T19:37:39.446Z,4.31
2023-04-01T19:40:29.134Z,4.33
2023-04-01T19:43:05.610Z,4.28
2023-04-01T19:45:44.890Z,4.28
2023-04-01T19:48:20.509Z,4.30
2023-04-01T19:50:56.993Z,4.34
2023-04-01T19:53:46.935Z,4.24
2023-04-01T19:56:27.106Z,4.16
2023-04-01T19:59:00.695Z,4.22
2023-04-01T20:01:56.742Z,4.12
2023-04-01T20:04:47.115Z,4.14
2023-04-01T20:07:20.660Z,4.12
2023-04-01T20:10:12.157Z,4.12
2023-04-01T20:13:03.768Z,4.08
2023-04-01T20:15:44.713Z,4.10
2023-04-01T20:18:19.732Z,4.04
2023-04-01T20:21:15.616Z,4.00
2023-04-01T20:24:08.911Z,3.97
2023-04-01T20:26:46.805Z,3.96
2023-04-01T20:29:39.432Z,3.98
2023-04-01T20:32:23.714Z,3.86
2023-04-01T20:35:21.211Z,3.80
2023-04-01T20:38:14.613Z,3.82
2023-04-01T20:40:48.466Z,3.84
2023-04-01T20:43:45.020Z,3.90
2023-04-01T20:46:40.902Z,3.78
2023-04-01T20:49:37.574Z,3.73
2023-04-01T20:52:17.285Z,3.78
2023-04-01T20:54:58.937Z,3.84
2023-04-01T20:57:36.558Z,3.78
2023-04-01T21:00:38.512Z,3.72
2023-04-01T21:03:30.483Z,3.67
2023-04-01T21:06:06.937Z,3.64
2023-04-01T21:09:04.138Z,3.70
2023-04-01T21:11:55.477Z,3.66
2023-04-01T21:14:51.192Z,3.61
2023-04-01T21:17:52.198Z,3.63
2023-04-01T21:20:44.913Z,3.70
2023-04-01T21:23:43.736Z,3.57
2023-04-01T21:26:46.232Z,3.64
2023-04-01T21:29:25.707Z,3.57
2023-04-01T21:32:12.021Z,3.58
2023-04-01T21:34:50.084Z,3.64
2023-04-01T21:37:44.779Z,3.58
2023-04-01T21:40:37.732Z,3.57
2023-04-01T21:43:26.424Z,3.65
2023-04-01T21:46:07.888Z,3.63
2023-04-01T21:49:18.980Z,3.52
2023-04-01T21:52:07.218Z,3.58
2023-04-01T21:54:52.703Z,3.72
2023-04-01T21:57:41.096Z,3.66
2023-04-01T22:00:39.103Z,3.64
2023-04-01T22:03:26.795Z,3.62
2023-04-01T22:06:06.879Z,3.68
2023-04-01T22:08:46.282Z,3.72
2023-04-01T22:11:36.246Z,3.65
2023-04-01T22:14:13.568Z,3.65
2023-04-01T22:16:58.928Z,3.66
2023-04-01T22:19:46.801Z,3.66
2023-04-01T22:22:24.038Z,3.59
2023-04-01T22:25:12.285Z,3.53
2023-04-01T22:28:00.708Z,3.51
2023-04-01T22:30:40.276Z,3.62
2023-04-01T22:33:18.993Z,3.52
2023-04-01T22:35:55.542Z,3.48
2023-04-01T22:38:45.304Z,3.48
2023-04-01T22:41:35.279Z,3.58
2023-04-01T22:44:05.958Z,3.72
2023-04-01T22:47:03.214Z,3.76
2023-04-01T22:49:36.841Z,3.88
2023-04-01T22:52:19.323Z,3.78
2023-04-01T22:54:58.126Z,3.64
2023-04-01T22:57:45.261Z,3.72
2023-04-01T23:00:22.608Z,3.70
2023-04-01T23:03:15.293Z,3.68
2023-04-01T23:05:56.165Z,3.76
2023-04-01T23:08:47.855Z,3.72
2023-04-01T23:11:27.636Z,3.68
2023-04-01T23:14:20.410Z,3.70
2023-04-01T23:16:54.541Z,3.65
2023-04-01T23:19:52.289Z,3.67
2023-04-01T23:22:37.854Z,3.64
2023-04-01T23:25:26.153Z,3.68
2023-04-01T23:28:08.762Z,3.68
2023-04-01T23:30:45.510Z,3.65
2023-04-01T23:33:21.656Z,3.69
2023-04-01T23:36:06.577Z,3.60
2023-04-01T23:38:42.484Z,3.62
2023-04-01T23:41:16.184Z,3.70
2023-04-01T23:43:50.170Z,3.50
2023-04-01T23:46:21.852Z,3.60
2023-04-01T23:48:53.387Z,3.59
2023-04-01T23:51:33.006Z,3.48
2023-04-01T23:54:22.625Z,3.50
2023-04-01T23:56:57.752Z,3.42
2023-04-01T23:59:35.144Z,3.53
